Time;durP1;ratioP1;P1;durP2;ratioP2;P2;SDS_P1;SDS_P2;PMS_P1;PMS_P2;Temp;Humidity;BMP_temperature;BMP_pressure;BME280_temperature;BME280_humidity;BME280_pressure;Samples;Min_cycle;Max_cycle;Signal;HPM_P1;HPM_P2
2022/01/24 00:02:14;;;;;;;7.70;4.23;;;;;;;4.40;100.00;102666.97;4844789;29;20101;-81
2022/01/24 00:04:40;;;;;;;7.13;3.53;;;;;;;4.39;100.00;102660.84;4860873;29;20049;-84
2022/01/24 00:07:07;;;;;;;7.50;4.07;;;;;;;4.42;100.00;102660.97;4835562;29;20057;-84
2022/01/24 00:09:34;;;;;;;7.30;3.70;;;;;;;4.42;100.00;102667.94;4861602;29;20096;-83
2022/01/24 00:12:15;;;;;;;8.43;4.47;;;;;;;4.42;100.00;102666.19;4825346;29;20121;-82
2022/01/24 00:17:37;;;;;;;7.97;4.23;;;;;;;4.47;100.00;102677.75;4837782;29;20045;-83
2022/01/24 00:28:21;;;;;;;7.10;3.73;;;;;;;4.43;100.00;102680.16;4834754;29;20520;-82
2022/01/24 00:30:49;;;;;;;6.90;3.73;;;;;;;4.43;100.00;102678.44;4846298;29;20127;-82
2022/01/24 00:33:18;;;;;;;7.50;3.80;;;;;;;4.44;100.00;102680.22;4831662;29;20582;-83
2022/01/24 00:35:46;;;;;;;7.60;3.80;;;;;;;4.44;100.00;102677.59;4826918;29;20045;-82
2022/01/24 00:38:13;;;;;;;8.33;4.33;;;;;;;4.48;100.00;102676.91;4857130;29;20052;-82
2022/01/24 00:40:42;;;;;;;9.60;4.70;;;;;;;4.45;100.00;102683.72;4819955;29;20052;-83
2022/01/24 00:43:20;;;;;;;11.33;5.80;;;;;;;4.47;100.00;102675.13;4840595;29;20552;-83
2022/01/24 00:54:42;;;;;;;10.83;5.53;;;;;;;4.50;100.00;102667.38;4828785;29;20073;-83
2022/01/24 00:56:49;;;;;;;12.33;5.00;;;;;;;4.52;100.00;102662.19;4848808;29;20049;-82
2022/01/24 00:59:16;;;;;;;9.83;5.27;;;;;;;4.55;100.00;102659.69;4831253;29;20057;-82
2022/01/24 01:01:42;;;;;;;12.13;5.97;;;;;;;4.55;100.00;102657.06;4825016;29;20049;-82
2022/01/24 01:04:09;;;;;;;9.60;4.80;;;;;;;4.55;100.00;102657.06;4843948;29;20109;-81
2022/01/24 01:06:38;;;;;;;10.13;5.87;;;;;;;4.53;100.00;102659.63;4826581;29;20081;-81
2022/01/24 01:20:06;;;;;;;13.97;6.33;;;;;;;4.59;100.00;102668.53;4853345;29;20414;-82
2022/01/24 01:22:33;;;;;;;11.60;5.90;;;;;;;4.58;100.00;102666.75;4859922;29;20060;-82
2022/01/24 01:25:00;;;;;;;12.20;5.63;;;;;;;4.57;100.00;102670.22;4846958;29;20053;-82
2022/01/24 01:27:35;;;;;;;11.13;6.00;;;;;;;4.55;100.00;102666.66;4846689;29;20131;-83
2022/01/24 01:30:14;;;;;;;10.07;5.50;;;;;;;4.56;100.00;102668.44;4832901;29;20042;-83
2022/01/24 01:32:57;;;;;;;10.07;5.33;;;;;;;4.54;100.00;102671.00;4828596;29;20124;-82
2022/01/24 01:35:42;;;;;;;12.60;5.40;;;;;;;4.54;100.00;102671.00;4830713;29;20050;-83
2022/01/24 01:38:39;;;;;;;8.75;4.93;;;;;;;4.50;100.00;102669.09;4834051;29;20091;-82
2022/01/24 01:55:08;;;;;;;8.90;5.20;;;;;;;4.53;100.00;102669.19;4844194;29;20212;-83
2022/01/24 01:57:36;;;;;;;8.33;4.47;;;;;;;4.49;100.00;102672.56;4842232;29;20060;-83
2022/01/24 02:00:05;;;;;;;7.17;3.77;;;;;;;4.49;100.00;102662.09;4829477;29;20045;-82
2022/01/24 02:02:32;;;;;;;7.73;4.00;;;;;;;4.47;100.00;102667.28;4817390;29;20110;-84
2022/01/24 02:04:59;;;;;;;8.00;4.10;;;;;;;4.50;100.00;102664.75;4844836;29;20041;-84
2022/01/24 02:07:25;;;;;;;10.03;5.20;;;;;;;4.50;100.00;102664.75;4826683;29;20461;-82
2022/01/24 02:09:52;;;;;;;6.33;3.70;;;;;;;4.48;100.00;102663.81;4838830;29;20044;-84
2022/01/24 02:12:23;;;;;;;8.63;4.50;;;;;;;4.49;100.00;102652.50;4831390;29;20049;-82
2022/01/24 02:14:56;;;;;;;8.40;4.20;;;;;;;4.49;100.00;102656.84;4834479;29;20046;-83
2022/01/24 02:17:46;;;;;;;9.40;4.57;;;;;;;4.48;100.00;102653.34;4851915;29;20053;-81
2022/01/24 02:23:14;;;;;;;9.77;5.03;;;;;;;4.49;100.00;102652.50;4844833;29;20050;-82
2022/01/24 02:25:38;;;;;;;11.03;5.77;;;;;;;4.52;100.00;102660.44;4877800;23;20053;-83
2022/01/24 02:28:05;;;;;;;10.27;4.97;;;;;;;4.52;100.00;102652.59;4846739;29;20463;-82
2022/01/24 02:30:54;;;;;;;10.57;5.57;;;;;;;4.53;100.00;102653.50;4847887;29;20045;-83
2022/01/24 02:33:21;;;;;;;8.97;4.97;;;;;;;4.54;100.00;102655.31;4855463;29;20041;-83
2022/01/24 02:35:48;;;;;;;11.07;5.80;;;;;;;4.57;100.00;102657.13;4840371;29;20094;-83
2022/01/24 02:38:27;;;;;;;12.37;6.50;;;;;;;4.58;100.00;102651.06;4827119;29;20193;-83
2022/01/24 02:49:11;;;;;;;8.77;5.20;;;;;;;4.58;100.00;102648.44;4842542;29;20081;-82
2022/01/24 02:51:47;;;;;;;12.00;6.67;;;;;;;4.60;100.00;102652.00;4828055;29;20587;-82
2022/01/24 02:54:27;;;;;;;10.37;6.23;;;;;;;4.58;100.00;102646.72;4829675;29;20049;-82
2022/01/24 02:56:53;;;;;;;11.03;6.70;;;;;;;4.58;100.00;102649.31;4842274;29;20057;-83
2022/01/24 02:59:20;;;;;;;9.97;5.70;;;;;;;4.60;100.00;102649.38;4833092;29;20045;-83
2022/01/24 03:01:47;;;;;;;12.23;7.10;;;;;;;4.65;100.00;102648.72;4832620;29;20045;-83
2022/01/24 03:04:14;;;;;;;11.27;6.20;;;;;;;4.67;100.00;102648.75;4851902;29;20044;-83
2022/01/24 03:06:41;;;;;;;13.20;5.80;;;;;;;4.63;100.00;102641.66;4851399;29;20470;-83
2022/01/24 03:09:08;;;;;;;11.10;5.93;;;;;;;4.65;100.00;102645.22;4851644;29;20045;-83
2022/01/24 03:14:18;;;;;;;9.47;5.20;;;;;;;4.64;100.00;102646.03;4857497;29;20451;-83
2022/01/24 03:16:45;;;;;;;11.77;6.50;;;;;;;4.61;100.00;102646.81;4834177;29;20049;-83
2022/01/24 03:19:12;;;;;;;12.83;6.83;;;;;;;4.63;100.00;102647.78;4828814;29;20041;-83
2022/01/24 03:21:41;;;;;;;11.63;6.80;;;;;;;4.62;100.00;102645.97;4832757;29;20049;-82
2022/01/24 03:24:08;;;;;;;12.10;6.60;;;;;;;4.64;100.00;102646.03;4852307;29;20578;-83
2022/01/24 03:26:34;;;;;;;14.00;7.90;;;;;;;4.71;100.00;102645.44;4835405;29;20393;-83
2022/01/24 03:29:01;;;;;;;13.27;6.87;;;;;;;4.66;100.00;102639.13;4828708;29;20137;-83
2022/01/24 03:31:27;;;;;;;11.33;6.60;;;;;;;4.67;100.00;102640.91;4826178;29;20447;-82
2022/01/24 03:33:54;;;;;;;14.67;7.70;;;;;;;4.71;100.00;102643.69;4859663;23;20112;-85
2022/01/24 03:36:21;;;;;;;13.23;7.23;;;;;;;4.74;100.00;102648.16;4845689;29;20069;-85
2022/01/24 03:38:47;;;;;;;13.37;7.53;;;;;;;4.71;100.00;102650.66;4845602;29;20053;-85
2022/01/24 03:41:15;;;;;;;12.87;6.97;;;;;;;4.71;100.00;102648.06;4848242;29;20052;-86
2022/01/24 03:43:41;;;;;;;12.63;7.53;;;;;;;4.73;100.00;102651.59;4858700;29;20204;-85
2022/01/24 03:51:06;;;;;;;14.83;7.60;;;;;;;4.75;100.00;102652.53;4857927;29;20051;-86
2022/01/24 03:53:34;;;;;;;14.90;7.90;;;;;;;4.70;100.00;102648.84;4848832;29;20049;-86
2022/01/24 03:56:04;;;;;;;16.83;8.63;;;;;;;4.70;100.00;102649.75;4861294;29;20573;-87
2022/01/24 03:58:31;;;;;;;14.73;8.07;;;;;;;4.68;100.00;102655.78;4846208;29;20041;-87
2022/01/24 04:00:58;;;;;;;15.00;7.57;;;;;;;4.67;100.00;102657.50;4832943;29;20439;-87
2022/01/24 04:03:26;;;;;;;14.87;8.87;;;;;;;4.68;100.00;102645.31;4852682;29;20048;-87
2022/01/24 04:05:52;;;;;;;12.03;7.10;;;;;;;4.65;100.00;102645.22;4851710;29;20068;-87
2022/01/24 04:08:19;;;;;;;14.43;8.00;;;;;;;4.65;100.00;102648.72;4845217;29;20045;-86
2022/01/24 04:10:51;;;;;;;14.27;8.63;;;;;;;4.64;100.00;102641.69;4833587;29;20137;-87
2022/01/24 04:13:41;;;;;;;15.70;8.17;;;;;;;4.64;100.00;102646.03;4831343;29;20040;-86
2022/01/24 04:16:26;;;;;;;13.77;8.30;;;;;;;4.62;100.00;102647.69;4847186;29;20519;-87
2022/01/24 04:21:19;;;;;;;14.37;7.87;;;;;;;4.60;100.00;102649.38;4864069;29;20318;-85
2022/01/24 04:21:47;;;;;;;13.90;7.83;;;;;;;4.58;100.00;102649.31;4831064;29;20053;-86
2022/01/24 04:24:19;;;;;;;14.83;7.70;;;;;;;4.56;100.00;102637.03;4834934;29;20045;-86
2022/01/24 04:26:45;;;;;;;14.50;8.30;;;;;;;4.55;100.00;102640.47;4844158;29;20052;-86
2022/01/24 04:29:12;;;;;;;17.67;9.23;;;;;;;4.61;100.00;102641.56;4859636;29;20495;-86
2022/01/24 04:31:39;;;;;;;15.67;9.13;;;;;;;4.64;100.00;102641.69;4838729;29;20056;-86
2022/01/24 04:34:06;;;;;;;14.73;8.60;;;;;;;4.59;100.00;102648.47;4830933;29;20479;-86
2022/01/24 04:36:33;;;;;;;18.93;9.63;;;;;;;4.64;100.00;102646.94;4833468;29;20045;-86
2022/01/24 04:38:59;;;;;;;16.13;8.67;;;;;;;4.65;100.00;102650.44;4841003;29;20049;-86
2022/01/24 04:41:34;;;;;;;17.37;9.33;;;;;;;4.71;100.00;102654.19;4824856;29;20267;-86
2022/01/24 04:54:45;;;;;;;17.60;9.60;;;;;;;4.63;100.00;102652.13;4846284;29;20049;-86
2022/01/24 04:57:18;;;;;;;16.40;9.33;;;;;;;4.62;100.00;102658.16;4847357;29;20056;-86
2022/01/24 04:59:47;;;;;;;17.30;9.23;;;;;;;4.59;100.00;102664.19;4828670;29;20045;-86
2022/01/24 05:02:15;;;;;;;16.70;9.07;;;;;;;4.59;100.00;102652.84;4855494;29;20452;-85
2022/01/24 05:04:42;;;;;;;16.10;9.37;;;;;;;4.55;100.00;102656.19;4847125;29;20254;-85
2022/01/24 05:07:09;;;;;;;17.43;10.27;;;;;;;4.50;100.00;102653.38;4840616;29;20392;-85
2022/01/24 05:09:57;;;;;;;16.17;9.80;;;;;;;4.57;100.00;102657.13;4853043;29;20052;-85
2022/01/24 05:25:59;;;;;;;16.03;8.23;;;;;;;4.48;100.00;102655.06;4863047;29;20437;-86
2022/01/24 05:28:26;;;;;;;16.37;9.43;;;;;;;4.61;100.00;102662.50;4846026;29;20048;-84
2022/01/24 05:30:53;;;;;;;17.80;10.63;;;;;;;4.53;100.00;102659.63;4848958;29;20418;-85
2022/01/24 05:33:20;;;;;;;16.83;9.07;;;;;;;4.60;100.00;102665.09;4853158;29;20046;-84
2022/01/24 05:35:48;;;;;;;17.13;8.63;;;;;;;4.51;100.00;102655.16;4845691;29;20057;-85
2022/01/24 05:38:14;;;;;;;17.67;9.47;;;;;;;4.57;100.00;102662.38;4829298;29;20045;-84
2022/01/24 05:40:41;;;;;;;17.07;8.50;;;;;;;4.46;100.00;102656.75;4863245;29;20440;-84
2022/01/24 05:43:08;;;;;;;17.40;10.20;;;;;;;4.41;100.00;102651.34;4846676;29;20419;-85
2022/01/24 05:45:35;;;;;;;16.60;9.50;;;;;;;4.52;100.00;102659.56;4848218;29;20451;-85
2022/01/24 05:48:02;;;;;;;17.83;9.27;;;;;;;4.55;100.00;102664.03;4843177;29;20072;-85
2022/01/24 05:50:29;;;;;;;17.97;9.57;;;;;;;4.49;100.00;102655.13;4814475;29;20053;-85
2022/01/24 05:52:56;;;;;;;16.33;8.97;;;;;;;4.44;100.00;102664.50;4832554;29;20448;-86
2022/01/24 05:55:23;;;;;;;18.20;9.30;;;;;;;4.41;100.00;102661.81;4837982;29;20056;-84
2022/01/24 05:57:52;;;;;;;20.77;10.27;;;;;;;4.42;100.00;102665.31;4826397;29;20049;-84
2022/01/24 06:00:20;;;;;;;18.73;9.53;;;;;;;4.44;100.00;102674.09;4816828;29;20549;-84
2022/01/24 06:02:47;;;;;;;19.37;10.00;;;;;;;4.37;100.00;102664.22;4846019;29;20411;-84
2022/01/24 06:05:13;;;;;;;17.43;9.00;;;;;;;4.35;100.00;102669.41;4860460;29;20064;-84
2022/01/24 06:07:40;;;;;;;15.07;9.17;;;;;;;4.36;100.00;102668.56;4840715;29;20053;-84
2022/01/24 06:10:07;;;;;;;18.77;9.63;;;;;;;4.36;100.00;102665.06;4830895;29;20464;-84
2022/01/24 06:12:34;;;;;;;19.53;10.33;;;;;;;4.38;100.00;102666.94;4843712;29;20064;-84
2022/01/24 06:15:01;;;;;;;19.03;9.90;;;;;;;4.40;100.00;102670.50;4818469;29;20055;-84
2022/01/24 06:17:28;;;;;;;15.73;9.00;;;;;;;4.39;100.00;102679.19;4856254;29;20052;-84
2022/01/24 06:19:55;;;;;;;16.80;10.00;;;;;;;4.44;100.00;102681.94;4835196;29;20072;-84
2022/01/24 06:22:21;;;;;;;17.07;10.43;;;;;;;4.40;100.00;102685.31;4830234;29;20420;-84
2022/01/24 06:24:48;;;;;;;18.13;9.23;;;;;;;4.33;100.00;102684.19;4826647;29;20053;-85
2022/01/24 06:27:35;;;;;;;17.27;8.90;;;;;;;4.34;100.00;102683.34;4842814;29;20055;-83
2022/01/24 06:30:03;;;;;;;16.37;9.17;;;;;;;4.35;100.00;102684.22;4827177;29;20054;-84
2022/01/24 06:32:30;;;;;;;18.07;9.23;;;;;;;4.41;100.00;102689.69;4841106;29;20522;-84
2022/01/24 06:35:00;;;;;;;13.43;8.50;;;;;;;4.34;100.00;102691.19;4819774;29;20053;-84
2022/01/24 06:37:27;;;;;;;16.03;8.80;;;;;;;4.32;100.00;102700.72;4831351;29;20093;-84
2022/01/24 06:39:54;;;;;;;16.13;9.17;;;;;;;4.32;100.00;102691.97;4824960;29;20049;-85
2022/01/24 06:42:23;;;;;;;15.83;8.40;;;;;;;4.37;100.00;102695.63;4836560;29;20041;-84
2022/01/24 06:44:54;;;;;;;17.50;9.07;;;;;;;4.37;100.00;102699.19;4840800;29;20045;-84
2022/01/24 06:47:22;;;;;;;16.47;8.83;;;;;;;4.34;100.00;102706.88;4842210;29;20049;-85
2022/01/24 06:49:49;;;;;;;16.23;9.40;;;;;;;4.30;100.00;102709.34;4829205;29;20102;-85
2022/01/24 06:52:16;;;;;;;17.13;8.67;;;;;;;4.26;100.00;102705.72;4811803;29;20098;-84
2022/01/24 06:54:44;;;;;;;18.93;9.37;;;;;;;4.26;100.00;102712.66;4828493;29;20049;-86
2022/01/24 06:57:11;;;;;;;17.77;9.13;;;;;;;4.23;100.00;102709.09;4827297;29;20045;-86
2022/01/24 06:59:39;;;;;;;16.00;8.80;;;;;;;4.24;100.00;102715.22;4830154;29;20412;-86
2022/01/24 07:02:07;;;;;;;17.17;8.97;;;;;;;4.21;100.00;102715.13;4851779;29;20109;-88
2022/01/24 07:04:36;;;;;;;14.10;8.97;;;;;;;4.19;100.00;102716.75;4866654;29;20155;-87
2022/01/24 07:07:04;;;;;;;16.00;8.90;;;;;;;4.21;100.00;102715.13;4845851;29;20069;-86
2022/01/24 07:09:31;;;;;;;15.43;8.80;;;;;;;4.21;100.00;102722.97;4832140;29;20049;-87
2022/01/24 07:11:58;;;;;;;18.73;10.07;;;;;;;4.22;100.00;102717.78;4845695;29;20380;-86
2022/01/24 07:14:25;;;;;;;15.93;9.20;;;;;;;4.21;100.00;102721.25;4847230;29;20049;-86
2022/01/24 07:19:26;;;;;;;15.60;8.97;;;;;;;4.25;100.00;102724.84;4862530;29;20044;-86
2022/01/24 07:21:54;;;;;;;17.87;9.87;;;;;;;4.23;100.00;102726.53;4830994;29;20136;-86
2022/01/24 07:24:21;;;;;;;19.70;8.93;;;;;;;4.21;100.00;102722.97;4847420;29;20132;-86
2022/01/24 07:26:49;;;;;;;17.57;9.10;;;;;;;4.20;100.00;102735.16;4830393;29;20049;-88
2022/01/24 07:29:17;;;;;;;16.60;9.27;;;;;;;4.28;100.00;102726.69;4832043;29;20072;-86
2022/01/24 07:31:44;;;;;;;14.20;8.63;;;;;;;4.24;100.00;102728.31;4830484;29;20049;-86
2022/01/24 07:34:11;;;;;;;20.73;11.60;;;;;;;4.41;100.00;102734.19;4832258;29;20479;-86
2022/01/24 07:36:38;;;;;;;16.00;9.40;;;;;;;4.34;100.00;102733.06;4831290;29;20071;-88
2022/01/24 07:39:05;;;;;;;19.30;10.10;;;;;;;4.35;100.00;102732.22;4851408;29;20049;-88
2022/01/24 07:41:41;;;;;;;17.50;9.63;;;;;;;4.34;100.00;102729.56;4830198;29;20041;-88
2022/01/24 07:44:08;;;;;;;15.37;9.13;;;;;;;4.30;100.00;102715.47;4847700;29;20052;-89
2022/01/24 07:46:35;;;;;;;16.07;8.60;;;;;;;4.33;100.00;102723.44;4860959;29;20049;-89
2022/01/24 07:49:04;;;;;;;14.57;8.67;;;;;;;4.33;100.00;102718.19;4846700;29;20407;-86
2022/01/24 07:51:30;;;;;;;19.00;9.60;;;;;;;4.34;100.00;102719.97;4829028;29;20408;-85
2022/01/24 07:53:57;;;;;;;16.87;9.43;;;;;;;4.33;100.00;102715.56;4844995;29;20448;-87
2022/01/24 07:56:24;;;;;;;18.33;9.23;;;;;;;4.34;100.00;102719.09;4828346;29;20442;-86
2022/01/24 07:58:51;;;;;;;18.00;10.07;;;;;;;4.34;100.00;102719.97;4829973;29;20053;-85
2022/01/24 08:01:18;;;;;;;18.33;8.60;;;;;;;4.37;100.00;102712.25;4858145;29;20063;-86
2022/01/24 08:03:46;;;;;;;18.23;10.10;;;;;;;4.44;100.00;102718.59;4830413;29;20112;-86
2022/01/24 08:06:14;;;;;;;16.70;9.17;;;;;;;4.46;100.00;102725.69;4814850;29;20061;-86
2022/01/24 08:08:40;;;;;;;15.60;8.90;;;;;;;4.48;100.00;102718.78;4845571;29;20400;-87
2022/01/24 08:11:08;;;;;;;21.97;10.13;;;;;;;4.45;100.00;102715.13;4844358;29;20045;-88
2022/01/24 08:13:37;;;;;;;20.47;9.73;;;;;;;4.49;100.00;102719.66;4845947;29;20101;-87
2022/01/24 08:16:03;;;;;;;15.67;9.43;;;;;;;4.47;100.00;102716.09;4844893;29;20056;-88
2022/01/24 08:18:30;;;;;;;15.13;7.90;;;;;;;4.52;100.00;102719.78;4845849;29;20080;-87
2022/01/24 08:20:57;;;;;;;16.03;8.80;;;;;;;4.53;100.00;102714.59;4830110;29;20060;-87
2022/01/24 08:23:24;;;;;;;17.00;8.80;;;;;;;4.57;100.00;102728.69;4841386;29;20037;-87
2022/01/24 08:25:53;;;;;;;15.63;9.50;;;;;;;4.63;100.00;102722.81;4827316;29;20077;-87
2022/01/24 08:28:20;;;;;;;16.53;8.57;;;;;;;4.69;100.00;102730.88;4827801;29;20056;-87
2022/01/24 08:30:47;;;;;;;16.17;9.23;;;;;;;4.71;100.00;102731.84;4830239;29;20071;-86
2022/01/24 08:33:14;;;;;;;12.73;7.87;;;;;;;4.63;100.00;102730.66;4828504;29;20483;-86
2022/01/24 08:35:41;;;;;;;16.37;8.70;;;;;;;4.65;100.00;102734.22;4829977;29;20049;-86
2022/01/24 08:38:08;;;;;;;16.30;9.30;;;;;;;4.65;100.00;102727.25;4827726;29;20052;-86
2022/01/24 08:40:37;;;;;;;15.73;8.80;;;;;;;4.63;100.00;102728.94;4829647;29;20052;-86
2022/01/24 08:43:06;;;;;;;18.27;8.97;;;;;;;4.61;100.00;102732.31;4829312;29;20049;-86
2022/01/24 08:48:08;;;;;;;19.40;11.63;;;;;;;4.62;100.00;102736.69;4859329;29;20053;-86
2022/01/24 08:50:35;;;;;;;19.50;11.47;;;;;;;4.63;100.00;102739.41;4860377;29;20513;-87
2022/01/24 08:53:03;;;;;;;17.73;11.23;;;;;;;4.64;100.00;102740.28;4844054;29;20100;-86
2022/01/24 08:55:30;;;;;;;18.40;11.37;;;;;;;4.67;100.00;102732.53;4844989;29;20045;-86
2022/01/24 08:57:58;;;;;;;18.87;11.53;;;;;;;4.67;100.00;102730.81;4843963;29;20063;-85
2022/01/24 09:00:26;;;;;;;20.93;11.80;;;;;;;4.68;100.00;102729.97;4826193;29;20049;-86
2022/01/24 09:02:53;;;;;;;19.23;10.67;;;;;;;4.69;100.00;102723.91;4810373;29;20046;-85
2022/01/24 09:05:24;;;;;;;20.50;12.17;;;;;;;4.72;100.00;102718.78;4844852;29;20055;-85
2022/01/24 09:07:51;;;;;;;18.63;10.93;;;;;;;4.76;100.00;102712.81;4828826;29;20052;-85
2022/01/24 09:10:19;;;;;;;17.13;9.83;;;;;;;4.78;100.00;102715.47;4844523;29;20068;-85
2022/01/24 09:12:46;;;;;;;16.50;10.50;;;;;;;4.83;100.00;102711.31;4840216;29;20502;-84
2022/01/24 09:15:14;;;;;;;20.23;11.00;;;;;;;4.86;100.00;102711.41;4841897;29;20057;-84
2022/01/24 09:17:43;;;;;;;15.90;9.57;;;;;;;4.90;100.00;102718.56;4857023;29;20419;-84
2022/01/24 09:20:11;;;;;;;18.90;9.40;;;;;;;4.95;100.00;102716.09;4846160;29;20084;-84
2022/01/24 09:22:43;;;;;;;17.70;8.83;;;;;;;4.90;100.00;102718.56;4845107;29;20452;-84
2022/01/24 09:25:10;;;;;;;15.27;8.53;;;;;;;4.88;100.00;102722.84;4846146;29;20045;-86
2022/01/24 09:27:41;;;;;;;16.90;9.03;;;;;;;4.95;100.00;102724.84;4841976;29;20053;-82
2022/01/24 09:30:09;;;;;;;18.67;10.87;;;;;;;4.99;100.00;102724.13;4845504;29;20064;-86
2022/01/24 09:32:37;;;;;;;20.13;10.33;;;;;;;5.07;100.00;102725.28;4832497;29;20065;-85
2022/01/24 09:35:07;;;;;;;19.80;9.83;;;;;;;5.07;100.00;102717.41;4855713;29;20411;-86
2022/01/24 09:37:34;;;;;;;18.63;9.13;;;;;;;5.08;100.00;102721.81;4852249;29;20306;-86
2022/01/24 09:40:02;;;;;;;14.60;9.07;;;;;;;5.19;100.00;102719.56;4854670;29;20472;-85
2022/01/24 09:42:29;;;;;;;17.13;10.33;;;;;;;5.16;100.00;102713.34;4852749;29;20069;-84
2022/01/24 09:44:59;;;;;;;18.27;10.37;;;;;;;5.19;100.00;102718.69;4849393;29;20140;-85
2022/01/24 09:47:25;;;;;;;14.13;8.77;;;;;;;5.12;100.00;102719.28;4819590;29;20153;-83
2022/01/24 09:49:52;;;;;;;16.47;9.47;;;;;;;5.11;100.00;102723.66;4835856;29;20497;-84
2022/01/24 09:52:19;;;;;;;18.00;8.33;;;;;;;5.13;100.00;102710.59;4847308;29;20046;-85
2022/01/24 09:54:47;;;;;;;16.37;8.40;;;;;;;5.11;100.00;102717.53;4851108;29;20052;-85
2022/01/24 09:57:19;;;;;;;14.60;9.03;;;;;;;5.10;100.00;102716.63;4887209;29;20048;-84
2022/01/24 09:59:46;;;;;;;17.20;9.90;;;;;;;5.11;100.00;102713.16;4871049;29;20041;-84
2022/01/24 10:02:13;;;;;;;15.73;8.97;;;;;;;5.15;100.00;102714.19;4853873;29;20078;-84
2022/01/24 10:04:40;;;;;;;17.10;9.33;;;;;;;5.22;100.00;102703.97;4862485;29;20049;-84
2022/01/24 10:07:13;;;;;;;15.47;9.17;;;;;;;5.18;100.00;102701.19;4834742;29;20061;-84
2022/01/24 10:09:45;;;;;;;13.57;7.80;;;;;;;5.16;100.00;102705.47;4851915;29;20118;-84
2022/01/24 10:12:26;;;;;;;13.20;7.40;;;;;;;5.16;100.00;102700.25;4863652;29;20124;-84
2022/01/24 10:17:41;;;;;;;13.50;7.00;;;;;;;5.20;100.00;102696.88;4863658;29;20135;-83
2022/01/24 10:20:43;;;;;;;13.07;7.53;;;;;;;5.14;100.00;102692.34;4834494;29;20052;-83
2022/01/24 10:23:24;;;;;;;11.10;6.70;;;;;;;5.09;100.00;102692.16;4856117;29;20052;-83
2022/01/24 10:26:01;;;;;;;16.47;9.03;;;;;;;5.16;100.00;102688.03;4850121;29;20419;-86
2022/01/24 10:28:34;;;;;;;13.83;7.70;;;;;;;5.12;100.00;102677.38;4834394;29;20056;-82
2022/01/24 10:31:05;;;;;;;14.77;7.80;;;;;;;5.13;100.00;102687.00;4833530;29;20045;-83
2022/01/24 10:33:50;;;;;;;14.77;8.07;;;;;;;5.09;100.00;102686.91;4864807;29;20403;-84
2022/01/24 10:36:44;;;;;;;15.55;7.30;;;;;;;5.15;100.00;102686.25;4831340;29;20049;-84
2022/01/24 10:39:18;;;;;;;;;;;;;;;5.07;100.00;102685.09;4846801;29;20049;-83
2022/01/24 10:42:10;;;;;;;13.27;7.23;;;;;;;5.06;100.00;102673.72;4885631;24;19925;-83
2022/01/24 10:44:38;;;;;;;11.80;6.50;;;;;;;5.10;100.00;102679.94;4835278;29;20054;-82
2022/01/24 10:47:12;;;;;;;11.40;6.10;;;;;;;5.08;100.00;102673.78;4798691;29;20055;-83
2022/01/24 10:49:39;;;;;;;11.00;5.97;;;;;;;5.03;100.00;102672.72;4789309;29;20119;-83
2022/01/24 10:52:14;;;;;;;9.93;5.63;;;;;;;5.04;100.00;102678.03;4802775;29;20051;-82
2022/01/24 10:54:40;;;;;;;11.03;6.10;;;;;;;5.07;100.00;102669.38;4787313;29;20047;-82
2022/01/24 10:57:07;;;;;;;12.20;5.93;;;;;;;5.20;100.00;102676.78;4800785;29;20475;-83
2022/01/24 10:59:35;;;;;;;8.87;4.70;;;;;;;5.18;100.00;102678.47;4785923;30;20702;-82
2022/01/24 11:02:04;;;;;;;9.83;5.43;;;;;;;5.11;100.00;102680.84;4771077;30;20051;-83
2022/01/24 11:04:33;;;;;;;13.03;5.43;;;;;;;5.18;100.00;102669.72;4776443;29;20053;-82
2022/01/24 11:07:02;;;;;;;9.90;5.57;;;;;;;5.08;100.00;102677.28;4774751;29;20046;-81
2022/01/24 11:09:29;;;;;;;12.67;6.97;;;;;;;5.06;100.00;102680.69;4787909;29;20055;-82
2022/01/24 11:11:59;;;;;;;9.80;5.50;;;;;;;5.03;100.00;102678.84;4799029;29;20521;-83
2022/01/24 11:14:27;;;;;;;10.53;5.37;;;;;;;4.98;100.00;102672.56;4810177;29;20038;-83
2022/01/24 11:16:56;;;;;;;22.60;12.97;;;;;;;4.93;100.00;102673.25;4781614;29;20046;-82
2022/01/24 11:19:30;;;;;;;33.70;21.20;;;;;;;4.94;100.00;102675.03;4792843;29;20653;-80
2022/01/24 11:21:58;;;;;;;;;;;;;;;4.95;100.00;102675.06;4793900;29;20051;-81
2022/01/24 11:27:24;;;;;;;10.87;8.67;;;;;;;4.93;100.00;102668.00;4787760;29;20479;-82
2022/01/24 11:29:54;;;;;;;13.47;12.00;;;;;;;5.01;100.00;102667.44;4774635;29;20558;-82
2022/01/24 11:32:38;;;;;;;9.87;6.03;;;;;;;4.94;100.00;102665.44;4804112;29;20039;-81
2022/01/24 11:35:05;;;;;;;9.85;6.38;;;;;;;4.94;100.00;102664.53;4780144;29;20051;-81
2022/01/24 11:37:44;;;;;;;11.37;6.93;;;;;;;4.96;100.00;102657.63;4789646;29;20060;-82
2022/01/24 11:40:13;;;;;;;11.83;6.47;;;;;;;5.00;100.00;102655.16;4775600;29;20115;-81
2022/01/24 11:42:42;;;;;;;12.67;7.93;;;;;;;5.01;100.00;102649.09;4774767;29;20046;-82
2022/01/24 11:45:45;;;;;;;13.27;8.70;;;;;;;4.97;100.00;102641.97;4808915;29;20402;-81
2022/01/24 11:48:18;;;;;;;11.77;6.43;;;;;;;4.89;100.00;102651.31;4803306;29;20046;-82
2022/01/24 11:51:16;;;;;;;12.47;6.50;;;;;;;4.94;100.00;102646.22;4794154;29;20479;-82
2022/01/24 11:53:45;;;;;;;12.57;6.90;;;;;;;4.90;100.00;102644.34;4791432;29;20054;-82
2022/01/24 11:56:26;;;;;;;11.27;6.23;;;;;;;4.86;100.00;102647.66;4785292;29;20081;-82
2022/01/24 11:59:22;;;;;;;10.80;6.47;;;;;;;4.90;100.00;102650.47;4772781;29;20182;-83
2022/01/24 12:02:06;;;;;;;11.70;7.03;;;;;;;4.90;100.00;102645.22;4770775;29;20043;-82
2022/01/24 12:04:51;;;;;;;10.43;6.70;;;;;;;4.86;100.00;102643.31;4787386;29;20521;-82
2022/01/24 12:07:18;;;;;;;12.83;7.83;;;;;;;4.88;100.00;102640.78;4800375;29;20532;-83
2022/01/24 12:09:46;;;;;;;16.40;9.10;;;;;;;4.89;100.00;102642.56;4787438;29;20141;-82
2022/01/24 12:12:48;;;;;;;15.33;7.83;;;;;;;4.88;100.00;102632.94;4756402;30;20059;-82
2022/01/24 12:15:38;;;;;;;11.77;6.80;;;;;;;4.94;100.00;102630.50;4798292;29;20082;-81
2022/01/24 12:18:08;;;;;;;15.03;7.47;;;;;;;4.93;100.00;102632.22;4768292;30;20134;-82
2022/01/24 12:20:34;;;;;;;14.90;8.10;;;;;;;4.88;100.00;102640.78;4783993;30;20050;-82
2022/01/24 12:23:18;;;;;;;16.37;8.30;;;;;;;4.80;100.00;102633.53;4768690;30;20051;-82
2022/01/24 12:26:13;;;;;;;12.57;7.77;;;;;;;4.87;100.00;102634.63;4779152;29;20070;-82
2022/01/24 12:28:43;;;;;;;12.87;7.13;;;;;;;4.76;100.00;102629.03;4800969;29;20055;-82
2022/01/24 12:31:22;;;;;;;13.03;6.90;;;;;;;4.80;100.00;102630.03;4799085;29;20043;-83
2022/01/24 12:33:52;;;;;;;11.27;6.60;;;;;;;4.73;100.00;102622.81;4770500;29;20073;-82
2022/01/24 12:36:38;;;;;;;11.77;6.90;;;;;;;4.68;100.00;102620.00;4783367;29;20050;-82
2022/01/24 12:39:10;;;;;;;13.20;7.23;;;;;;;4.76;100.00;102630.75;4784663;29;20042;-83
2022/01/24 12:41:42;;;;;;;12.97;7.33;;;;;;;4.79;100.00;102628.22;4783255;29;20044;-82
2022/01/24 12:46:16;;;;;;;12.73;7.33;;;;;;;4.73;100.00;102626.31;4801561;29;20043;-82
2022/01/24 12:46:56;;;;;;;10.20;6.57;;;;;;;4.71;100.00;102624.47;4800879;29;20051;-84
2022/01/24 12:49:23;;;;;;;10.03;6.27;;;;;;;4.63;100.00;102623.31;4802349;29;20057;-82
2022/01/24 12:51:51;;;;;;;12.03;7.10;;;;;;;4.58;100.00;102609.16;4770913;29;20046;-83
2022/01/24 12:54:18;;;;;;;11.93;6.50;;;;;;;4.56;100.00;102614.34;4802471;29;20046;-82
2022/01/24 12:56:44;;;;;;;10.43;5.83;;;;;;;4.64;100.00;102622.47;4786192;29;20058;-83
2022/01/24 12:59:11;;;;;;;12.20;6.27;;;;;;;4.65;100.00;102624.25;4802564;29;20047;-83
2022/01/24 13:01:38;;;;;;;11.57;6.53;;;;;;;4.63;100.00;102621.59;4785833;29;20054;-83
2022/01/24 13:04:12;;;;;;;12.23;6.57;;;;;;;4.66;100.00;102619.06;4787602;29;20493;-82
2022/01/24 13:06:40;;;;;;;11.03;6.67;;;;;;;4.64;100.00;102620.75;4777316;29;20055;-83
2022/01/24 13:09:10;;;;;;;10.30;6.03;;;;;;;4.69;100.00;102615.66;4840872;29;20298;-82
2022/01/24 13:11:48;;;;;;;11.83;5.73;;;;;;;4.70;100.00;102609.59;4821275;29;20054;-82